sensor_id;sensor_type;location;lat;lon;timestamp;P1;durP1;ratioP1;P2;durP2;ratioP2
43905;SDS011;29564;46.622;13.818;2022-10-19T10:12:34;5.18;;;2.08;;
43905;SDS011;29564;46.622;13.818;2022-10-19T10:13:55;3.10;;;1.60;;
43905;SDS011;29564;46.622;13.818;2022-10-19T10:52:31;4.03;;;1.80;;
43905;SDS011;29564;46.622;13.818;2022-10-19T10:58:01;4.80;;;2.10;;
43905;SDS011;29564;46.622;13.818;2022-10-19T10:59:48;4.03;;;1.98;;
43905;SDS011;29564;46.622;13.818;2022-10-19T11:03:18;3.38;;;1.75;;
43905;SDS011;29564;46.622;13.818;2022-10-19T11:05:16;3.78;;;1.45;;
43905;SDS011;29564;46.622;13.818;2022-10-19T11:34:41;6.10;;;2.13;;
43905;SDS011;29564;46.622;13.818;2022-10-19T11:36:01;3.90;;;1.88;;
43905;SDS011;29564;46.622;13.818;2022-10-19T11:38:52;3.22;;;1.58;;
43905;SDS011;29564;46.622;13.818;2022-10-19T11:46:37;5.22;;;2.05;;
43905;SDS011;29564;46.622;13.818;2022-10-19T11:48:02;6.40;;;2.45;;
43905;SDS011;29564;46.622;13.818;2022-10-19T11:49:50;5.97;;;2.40;;
43905;SDS011;29564;46.622;13.818;2022-10-19T12:12:32;5.03;;;2.35;;
43905;SDS011;29564;46.622;13.818;2022-10-19T12:13:45;5.20;;;2.22;;
43905;SDS011;29564;46.622;13.818;2022-10-19T12:14:50;4.30;;;2.38;;
43905;SDS011;29564;46.622;13.818;2022-10-19T12:15:53;4.43;;;1.90;;
43905;SDS011;29564;46.622;13.818;2022-10-19T12:16:58;9.48;;;2.45;;
43905;SDS011;29564;46.622;13.818;2022-10-19T12:18:05;3.75;;;1.90;;
43905;SDS011;29564;46.622;13.818;2022-10-19T12:19:11;4.32;;;1.88;;
43905;SDS011;29564;46.622;13.818;2022-10-19T12:20:19;4.78;;;1.98;;
43905;SDS011;29564;46.622;13.818;2022-10-19T12:21:23;10.75;;;2.05;;
43905;SDS011;29564;46.622;13.818;2022-10-19T12:22:30;3.50;;;1.90;;
43905;SDS011;29564;46.622;13.818;2022-10-19T12:23:44;4.32;;;1.80;;
43905;SDS011;29564;46.622;13.818;2022-10-19T12:24:52;11.85;;;2.38;;
43905;SDS011;29564;46.622;13.818;2022-10-19T12:25:59;4.80;;;2.05;;
43905;SDS011;29564;46.622;13.818;2022-10-19T12:27:01;3.60;;;2.20;;
43905;SDS011;29564;46.622;13.818;2022-10-19T12:28:03;7.55;;;2.78;;
43905;SDS011;29564;46.622;13.818;2022-10-19T12:29:06;3.80;;;1.77;;
43905;SDS011;29564;46.622;13.818;2022-10-19T12:30:13;6.53;;;2.00;;
43905;SDS011;29564;46.622;13.818;2022-10-19T12:31:21;5.47;;;2.38;;
43905;SDS011;29564;46.622;13.818;2022-10-19T12:32:24;7.30;;;2.60;;
43905;SDS011;29564;46.622;13.818;2022-10-19T12:34:45;5.00;;;1.98;;
43905;SDS011;29564;46.622;13.818;2022-10-19T12:35:54;4.30;;;1.90;;
43905;SDS011;29564;46.622;13.818;2022-10-19T12:38:13;3.55;;;1.60;;
43905;SDS011;29564;46.622;13.818;2022-10-19T12:40:45;7.22;;;1.95;;
43905;SDS011;29564;46.622;13.818;2022-10-19T12:41:58;4.38;;;1.75;;
43905;SDS011;29564;46.622;13.818;2022-10-19T12:47:11;4.82;;;1.17;;
43905;SDS011;29564;46.622;13.818;2022-10-19T12:48:17;1.58;;;1.20;;
43905;SDS011;29564;46.622;13.818;2022-10-19T12:51:59;3.03;;;1.42;;
43905;SDS011;29564;46.622;13.818;2022-10-19T12:53:01;2.92;;;1.42;;
43905;SDS011;29564;46.622;13.818;2022-10-19T12:54:06;2.60;;;1.15;;
43905;SDS011;29564;46.622;13.818;2022-10-19T12:56:23;4.53;;;1.42;;
43905;SDS011;29564;46.622;13.818;2022-10-19T12:57:26;3.28;;;1.75;;
43905;SDS011;29564;46.622;13.818;2022-10-19T12:58:33;3.50;;;1.20;;
43905;SDS011;29564;46.622;13.818;2022-10-19T12:59:36;7.55;;;1.65;;
43905;SDS011;29564;46.622;13.818;2022-10-19T13:00:38;4.25;;;1.63;;
43905;SDS011;29564;46.622;13.818;2022-10-19T13:01:41;4.85;;;1.48;;
43905;SDS011;29564;46.622;13.818;2022-10-19T13:02:44;5.13;;;1.25;;
43905;SDS011;29564;46.622;13.818;2022-10-19T13:03:47;4.45;;;1.20;;
43905;SDS011;29564;46.622;13.818;2022-10-19T13:04:51;2.58;;;1.40;;
43905;SDS011;29564;46.622;13.818;2022-10-19T13:05:54;3.33;;;1.33;;
43905;SDS011;29564;46.622;13.818;2022-10-19T13:07:04;2.70;;;1.40;;
43905;SDS011;29564;46.622;13.818;2022-10-19T13:08:07;2.58;;;1.45;;
43905;SDS011;29564;46.622;13.818;2022-10-19T13:09:19;2.83;;;1.70;;
43905;SDS011;29564;46.622;13.818;2022-10-19T13:10:23;2.50;;;1.45;;
43905;SDS011;29564;46.622;13.818;2022-10-19T13:11:26;2.33;;;1.40;;
43905;SDS011;29564;46.622;13.818;2022-10-19T13:12:28;4.68;;;1.50;;
43905;SDS011;29564;46.622;13.818;2022-10-19T13:13:52;5.18;;;1.95;;
43905;SDS011;29564;46.622;13.818;2022-10-19T13:15:05;3.00;;;1.40;;
43905;SDS011;29564;46.622;13.818;2022-10-19T13:17:40;2.47;;;1.27;;
43905;SDS011;29564;46.622;13.818;2022-10-19T13:22:22;2.72;;;1.40;;
43905;SDS011;29564;46.622;13.818;2022-10-19T13:22:48;3.05;;;1.35;;
43905;SDS011;29564;46.622;13.818;2022-10-19T13:24:17;2.53;;;1.30;;
43905;SDS011;29564;46.622;13.818;2022-10-19T13:26:33;2.08;;;1.38;;
43905;SDS011;29564;46.622;13.818;2022-10-19T13:27:36;4.63;;;1.60;;
43905;SDS011;29564;46.622;13.818;2022-10-19T13:28:38;2.92;;;1.48;;
43905;SDS011;29564;46.622;13.818;2022-10-19T13:29:52;3.85;;;1.70;;
43905;SDS011;29564;46.622;13.818;2022-10-19T13:30:57;3.75;;;1.30;;
43905;SDS011;29564;46.622;13.818;2022-10-19T13:35:34;2.88;;;1.20;;
43905;SDS011;29564;46.622;13.818;2022-10-19T13:36:36;2.33;;;1.10;;
43905;SDS011;29564;46.622;13.818;2022-10-19T13:37:42;2.58;;;1.20;;
43905;SDS011;29564;46.622;13.818;2022-10-19T13:39:47;8.52;;;1.67;;
43905;SDS011;29564;46.622;13.818;2022-10-19T13:41:50;2.92;;;1.65;;
43905;SDS011;29564;46.622;13.818;2022-10-19T13:42:56;6.30;;;1.45;;
43905;SDS011;29564;46.622;13.818;2022-10-19T13:44:02;3.88;;;1.42;;
43905;SDS011;29564;46.622;13.818;2022-10-19T13:45:23;4.05;;;1.67;;
43905;SDS011;29564;46.622;13.818;2022-10-19T13:55:53;2.60;;;1.40;;
43905;SDS011;29564;46.622;13.818;2022-10-19T14:01:25;4.00;;;1.60;;
43905;SDS011;29564;46.622;13.818;2022-10-19T14:06:52;5.32;;;1.85;;
43905;SDS011;29564;46.622;13.818;2022-10-19T14:09:18;5.30;;;1.70;;
43905;SDS011;29564;46.622;13.818;2022-10-19T14:10:25;3.17;;;2.42;;
43905;SDS011;29564;46.622;13.818;2022-10-19T14:11:31;4.80;;;1.90;;
43905;SDS011;29564;46.622;13.818;2022-10-19T14:12:41;5.43;;;1.27;;
43905;SDS011;29564;46.622;13.818;2022-10-19T14:13:44;5.28;;;1.35;;
43905;SDS011;29564;46.622;13.818;2022-10-19T14:16:28;2.60;;;1.20;;
43905;SDS011;29564;46.622;13.818;2022-10-19T14:17:30;3.80;;;1.55;;
43905;SDS011;29564;46.622;13.818;2022-10-19T14:18:34;3.95;;;1.77;;
43905;SDS011;29564;46.622;13.818;2022-10-19T14:19:40;4.45;;;1.58;;
43905;SDS011;29564;46.622;13.818;2022-10-19T14:22:16;3.47;;;1.70;;
43905;SDS011;29564;46.622;13.818;2022-10-19T14:23:19;5.32;;;1.65;;
43905;SDS011;29564;46.622;13.818;2022-10-19T14:24:31;3.95;;;1.83;;
43905;SDS011;29564;46.622;13.818;2022-10-19T14:25:35;5.60;;;1.80;;
43905;SDS011;29564;46.622;13.818;2022-10-19T14:26:37;3.42;;;1.52;;
43905;SDS011;29564;46.622;13.818;2022-10-19T14:27:38;5.80;;;1.95;;
43905;SDS011;29564;46.622;13.818;2022-10-19T14:28:39;3.22;;;1.40;;
43905;SDS011;29564;46.622;13.818;2022-10-19T14:29:44;10.43;;;1.55;;
43905;SDS011;29564;46.622;13.818;2022-10-19T14:30:54;3.80;;;1.73;;
43905;SDS011;29564;46.622;13.818;2022-10-19T14:31:57;4.25;;;1.80;;
43905;SDS011;29564;46.622;13.818;2022-10-19T14:33:00;3.35;;;1.42;;
43905;SDS011;29564;46.622;13.818;2022-10-19T14:34:09;3.65;;;2.28;;
43905;SDS011;29564;46.622;13.818;2022-10-19T14:35:18;6.18;;;1.85;;
43905;SDS011;29564;46.622;13.818;2022-10-19T14:36:36;5.47;;;2.05;;
43905;SDS011;29564;46.622;13.818;2022-10-19T14:38:42;6.07;;;1.40;;
43905;SDS011;29564;46.622;13.818;2022-10-19T14:41:05;5.03;;;2.08;;
43905;SDS011;29564;46.622;13.818;2022-10-19T14:42:39;4.40;;;2.17;;
43905;SDS011;29564;46.622;13.818;2022-10-19T14:43:41;2.45;;;1.45;;
43905;SDS011;29564;46.622;13.818;2022-10-19T14:44:43;5.40;;;1.77;;
43905;SDS011;29564;46.622;13.818;2022-10-19T14:45:44;5.38;;;1.63;;
43905;SDS011;29564;46.622;13.818;2022-10-19T14:47:05;3.28;;;1.50;;
43905;SDS011;29564;46.622;13.818;2022-10-19T14:48:27;2.25;;;1.30;;
43905;SDS011;29564;46.622;13.818;2022-10-19T14:49:28;6.07;;;2.30;;
43905;SDS011;29564;46.622;13.818;2022-10-19T14:51:40;3.42;;;2.03;;
43905;SDS011;29564;46.622;13.818;2022-10-19T14:52:53;3.10;;;1.83;;
43905;SDS011;29564;46.622;13.818;2022-10-19T14:54:04;3.78;;;1.90;;
43905;SDS011;29564;46.622;13.818;2022-10-19T14:55:13;3.40;;;1.48;;
43905;SDS011;29564;46.622;13.818;2022-10-19T14:56:20;3.35;;;1.88;;
43905;SDS011;29564;46.622;13.818;2022-10-19T14:57:26;3.42;;;1.52;;
43905;SDS011;29564;46.622;13.818;2022-10-19T14:58:34;4.05;;;1.70;;
43905;SDS011;29564;46.622;13.818;2022-10-19T15:00:47;3.63;;;1.52;;
43905;SDS011;29564;46.622;13.818;2022-10-19T15:01:51;3.88;;;1.50;;
43905;SDS011;29564;46.622;13.818;2022-10-19T15:02:58;3.03;;;1.45;;
43905;SDS011;29564;46.622;13.818;2022-10-19T15:04:01;4.43;;;1.83;;
43905;SDS011;29564;46.622;13.818;2022-10-19T15:05:03;5.20;;;1.95;;
43905;SDS011;29564;46.622;13.818;2022-10-19T15:06:18;3.75;;;1.75;;
43905;SDS011;29564;46.622;13.818;2022-10-19T15:07:29;6.22;;;2.10;;
43905;SDS011;29564;46.622;13.818;2022-10-19T15:08:40;6.32;;;1.42;;
43905;SDS011;29564;46.622;13.818;2022-10-19T15:09:52;3.65;;;1.73;;
43905;SDS011;29564;46.622;13.818;2022-10-19T15:10:55;3.20;;;1.73;;
43905;SDS011;29564;46.622;13.818;2022-10-19T15:12:01;3.83;;;2.03;;
43905;SDS011;29564;46.622;13.818;2022-10-19T15:13:10;3.92;;;1.42;;
43905;SDS011;29564;46.622;13.818;2022-10-19T15:14:25;3.80;;;1.90;;
43905;SDS011;29564;46.622;13.818;2022-10-19T15:15:30;6.00;;;1.60;;
43905;SDS011;29564;46.622;13.818;2022-10-19T15:19:02;3.03;;;1.55;;
43905;SDS011;29564;46.622;13.818;2022-10-19T15:20:19;3.72;;;1.60;;
43905;SDS011;29564;46.622;13.818;2022-10-19T15:21:42;4.53;;;1.67;;
43905;SDS011;29564;46.622;13.818;2022-10-19T15:22:44;3.47;;;1.52;;
43905;SDS011;29564;46.622;13.818;2022-10-19T15:23:46;7.25;;;1.52;;
43905;SDS011;29564;46.622;13.818;2022-10-19T15:25:20;4.63;;;1.70;;
43905;SDS011;29564;46.622;13.818;2022-10-19T15:26:27;4.32;;;1.23;;
43905;SDS011;29564;46.622;13.818;2022-10-19T15:27:32;4.70;;;1.80;;
43905;SDS011;29564;46.622;13.818;2022-10-19T15:28:36;5.00;;;2.00;;
43905;SDS011;29564;46.622;13.818;2022-10-19T15:29:38;4.40;;;1.67;;
43905;SDS011;29564;46.622;13.818;2022-10-19T15:30:40;6.13;;;2.40;;
43905;SDS011;29564;46.622;13.818;2022-10-19T15:31:41;6.35;;;2.55;;
43905;SDS011;29564;46.622;13.818;2022-10-19T15:32:42;7.95;;;3.22;;
43905;SDS011;29564;46.622;13.818;2022-10-19T15:34:15;7.57;;;2.72;;
43905;SDS011;29564;46.622;13.818;2022-10-19T15:35:33;10.60;;;2.80;;
43905;SDS011;29564;46.622;13.818;2022-10-19T15:36:36;8.68;;;2.88;;
43905;SDS011;29564;46.622;13.818;2022-10-19T15:37:39;6.60;;;2.47;;
43905;SDS011;29564;46.622;13.818;2022-10-19T15:38:43;6.57;;;2.75;;
43905;SDS011;29564;46.622;13.818;2022-10-19T15:40:26;9.23;;;2.70;;
43905;SDS011;29564;46.622;13.818;2022-10-19T15:41:33;9.05;;;2.85;;
43905;SDS011;29564;46.622;13.818;2022-10-19T15:42:39;7.68;;;3.45;;
43905;SDS011;29564;46.622;13.818;2022-10-19T15:43:44;18.40;;;3.00;;
43905;SDS011;29564;46.622;13.818;2022-10-19T15:44:48;8.15;;;3.00;;
43905;SDS011;29564;46.622;13.818;2022-10-19T15:46:19;6.93;;;3.20;;
43905;SDS011;29564;46.622;13.818;2022-10-19T15:47:30;11.05;;;4.15;;
43905;SDS011;29564;46.622;13.818;2022-10-19T15:49:50;13.25;;;4.18;;
43905;SDS011;29564;46.622;13.818;2022-10-19T15:50:55;12.65;;;5.10;;
43905;SDS011;29564;46.622;13.818;2022-10-19T15:51:57;13.00;;;6.43;;
43905;SDS011;29564;46.622;13.818;2022-10-19T15:52:58;14.63;;;6.55;;
43905;SDS011;29564;46.622;13.818;2022-10-19T15:54:00;14.55;;;5.50;;
43905;SDS011;29564;46.622;13.818;2022-10-19T15:55:03;12.38;;;4.88;;
43905;SDS011;29564;46.622;13.818;2022-10-19T16:04:21;3.88;;;1.92;;
43905;SDS011;29564;46.622;13.818;2022-10-19T16:05:23;5.88;;;2.22;;
43905;SDS011;29564;46.622;13.818;2022-10-19T16:06:25;8.10;;;2.03;;
43905;SDS011;29564;46.622;13.818;2022-10-19T16:07:32;10.32;;;2.25;;
43905;SDS011;29564;46.622;13.818;2022-10-19T16:08:37;3.92;;;2.20;;
43905;SDS011;29564;46.622;13.818;2022-10-19T16:09:39;5.60;;;2.42;;
43905;SDS011;29564;46.622;13.818;2022-10-19T16:10:40;8.57;;;2.35;;
43905;SDS011;29564;46.622;13.818;2022-10-19T16:11:41;6.65;;;2.50;;
43905;SDS011;29564;46.622;13.818;2022-10-19T16:12:44;8.23;;;2.70;;
43905;SDS011;29564;46.622;13.818;2022-10-19T16:13:45;5.75;;;2.58;;
43905;SDS011;29564;46.622;13.818;2022-10-19T16:14:47;6.03;;;2.72;;
43905;SDS011;29564;46.622;13.818;2022-10-19T16:15:49;6.95;;;3.17;;
43905;SDS011;29564;46.622;13.818;2022-10-19T16:16:51;18.17;;;6.13;;
43905;SDS011;29564;46.622;13.818;2022-10-19T16:17:58;13.55;;;6.80;;
43905;SDS011;29564;46.622;13.818;2022-10-19T16:19:00;15.45;;;6.30;;
43905;SDS011;29564;46.622;13.818;2022-10-19T16:20:02;12.30;;;5.85;;
43905;SDS011;29564;46.622;13.818;2022-10-19T16:21:05;9.25;;;3.45;;
43905;SDS011;29564;46.622;13.818;2022-10-19T16:22:08;7.15;;;3.05;;
43905;SDS011;29564;46.622;13.818;2022-10-19T16:23:10;8.55;;;4.05;;
43905;SDS011;29564;46.622;13.818;2022-10-19T16:24:18;9.20;;;3.00;;
43905;SDS011;29564;46.622;13.818;2022-10-19T16:25:19;5.38;;;2.70;;
43905;SDS011;29564;46.622;13.818;2022-10-19T16:26:21;11.90;;;3.63;;
43905;SDS011;29564;46.622;13.818;2022-10-19T16:27:26;7.18;;;3.10;;
43905;SDS011;29564;46.622;13.818;2022-10-19T16:28:27;4.45;;;2.45;;
43905;SDS011;29564;46.622;13.818;2022-10-19T16:29:31;4.93;;;2.55;;
43905;SDS011;29564;46.622;13.818;2022-10-19T16:30:33;4.20;;;2.17;;
43905;SDS011;29564;46.622;13.818;2022-10-19T16:31:36;6.75;;;2.45;;
43905;SDS011;29564;46.622;13.818;2022-10-19T16:32:38;5.75;;;2.40;;
43905;SDS011;29564;46.622;13.818;2022-10-19T16:33:40;5.97;;;3.00;;
43905;SDS011;29564;46.622;13.818;2022-10-19T16:34:45;7.60;;;2.63;;
43905;SDS011;29564;46.622;13.818;2022-10-19T16:35:49;7.68;;;2.67;;
43905;SDS011;29564;46.622;13.818;2022-10-19T16:36:51;7.88;;;2.90;;
43905;SDS011;29564;46.622;13.818;2022-10-19T16:37:53;6.30;;;2.63;;
43905;SDS011;29564;46.622;13.818;2022-10-19T16:38:58;4.43;;;2.38;;
43905;SDS011;29564;46.622;13.818;2022-10-19T16:40:00;5.25;;;2.25;;
43905;SDS011;29564;46.622;13.818;2022-10-19T16:41:05;4.85;;;2.25;;
43905;SDS011;29564;46.622;13.818;2022-10-19T16:42:10;6.22;;;2.55;;
43905;SDS011;29564;46.622;13.818;2022-10-19T16:43:12;6.75;;;3.03;;
43905;SDS011;29564;46.622;13.818;2022-10-19T16:44:14;5.57;;;3.20;;
43905;SDS011;29564;46.622;13.818;2022-10-19T16:45:15;7.32;;;3.47;;
43905;SDS011;29564;46.622;13.818;2022-10-19T16:46:19;5.65;;;2.55;;
43905;SDS011;29564;46.622;13.818;2022-10-19T16:47:27;5.68;;;2.50;;
43905;SDS011;29564;46.622;13.818;2022-10-19T16:48:29;6.00;;;2.45;;
43905;SDS011;29564;46.622;13.818;2022-10-19T16:49:31;9.23;;;3.25;;
43905;SDS011;29564;46.622;13.818;2022-10-19T16:50:32;7.15;;;3.13;;
43905;SDS011;29564;46.622;13.818;2022-10-19T16:51:51;4.18;;;2.30;;
43905;SDS011;29564;46.622;13.818;2022-10-19T16:53:05;6.78;;;2.80;;
43905;SDS011;29564;46.622;13.818;2022-10-19T16:54:12;5.47;;;2.75;;
43905;SDS011;29564;46.622;13.818;2022-10-19T16:55:18;4.95;;;2.47;;
43905;SDS011;29564;46.622;13.818;2022-10-19T16:56:23;6.38;;;2.45;;
43905;SDS011;29564;46.622;13.818;2022-10-19T16:57:27;6.75;;;2.55;;
43905;SDS011;29564;46.622;13.818;2022-10-19T16:58:29;6.22;;;2.72;;
43905;SDS011;29564;46.622;13.818;2022-10-19T16:59:36;5.00;;;2.38;;
43905;SDS011;29564;46.622;13.818;2022-10-19T17:00:37;10.45;;;3.05;;
43905;SDS011;29564;46.622;13.818;2022-10-19T17:01:39;8.15;;;3.55;;
43905;SDS011;29564;46.622;13.818;2022-10-19T17:02:44;6.07;;;3.13;;
43905;SDS011;29564;46.622;13.818;2022-10-19T17:03:46;11.35;;;3.15;;
43905;SDS011;29564;46.622;13.818;2022-10-19T17:04:48;6.18;;;2.90;;
43905;SDS011;29564;46.622;13.818;2022-10-19T17:05:56;4.97;;;2.53;;
43905;SDS011;29564;46.622;13.818;2022-10-19T17:06:58;6.00;;;2.05;;
43905;SDS011;29564;46.622;13.818;2022-10-19T17:07:59;7.07;;;2.72;;
43905;SDS011;29564;46.622;13.818;2022-10-19T17:09:02;7.82;;;2.35;;
43905;SDS011;29564;46.622;13.818;2022-10-19T17:10:03;5.55;;;3.30;;
43905;SDS011;29564;46.622;13.818;2022-10-19T17:11:16;6.97;;;2.60;;
43905;SDS011;29564;46.622;13.818;2022-10-19T17:12:22;4.88;;;2.67;;
43905;SDS011;29564;46.622;13.818;2022-10-19T17:13:24;5.85;;;3.10;;
43905;SDS011;29564;46.622;13.818;2022-10-19T17:14:30;7.90;;;3.05;;
43905;SDS011;29564;46.622;13.818;2022-10-19T17:15:45;6.35;;;3.25;;
43905;SDS011;29564;46.622;13.818;2022-10-19T17:17:05;7.45;;;3.08;;
43905;SDS011;29564;46.622;13.818;2022-10-19T17:18:16;6.93;;;3.25;;
43905;SDS011;29564;46.622;13.818;2022-10-19T17:19:26;7.95;;;3.80;;
43905;SDS011;29564;46.622;13.818;2022-10-19T17:20:52;7.35;;;3.70;;
43905;SDS011;29564;46.622;13.818;2022-10-19T17:21:54;6.97;;;3.67;;
43905;SDS011;29564;46.622;13.818;2022-10-19T17:22:57;5.85;;;2.92;;
43905;SDS011;29564;46.622;13.818;2022-10-19T17:23:59;8.63;;;4.07;;
43905;SDS011;29564;46.622;13.818;2022-10-19T17:25:03;10.63;;;4.13;;
43905;SDS011;29564;46.622;13.818;2022-10-19T17:26:06;5.47;;;2.50;;
43905;SDS011;29564;46.622;13.818;2022-10-19T17:27:08;8.02;;;3.50;;
43905;SDS011;29564;46.622;13.818;2022-10-19T17:28:15;7.43;;;3.45;;
43905;SDS011;29564;46.622;13.818;2022-10-19T17:29:37;9.25;;;3.65;;
43905;SDS011;29564;46.622;13.818;2022-10-19T17:30:41;12.00;;;5.45;;
43905;SDS011;29564;46.622;13.818;2022-10-19T17:31:43;7.70;;;4.15;;
43905;SDS011;29564;46.622;13.818;2022-10-19T17:32:44;8.98;;;4.30;;
43905;SDS011;29564;46.622;13.818;2022-10-19T17:33:45;8.52;;;3.50;;
43905;SDS011;29564;46.622;13.818;2022-10-19T17:34:57;6.75;;;3.47;;
43905;SDS011;29564;46.622;13.818;2022-10-19T17:36:15;11.65;;;4.82;;
43905;SDS011;29564;46.622;13.818;2022-10-19T17:37:40;7.88;;;4.32;;
43905;SDS011;29564;46.622;13.818;2022-10-19T17:38:44;11.43;;;4.93;;
43905;SDS011;29564;46.622;13.818;2022-10-19T17:39:56;13.93;;;4.55;;
43905;SDS011;29564;46.622;13.818;2022-10-19T17:41:21;7.40;;;2.67;;
43905;SDS011;29564;46.622;13.818;2022-10-19T17:42:25;5.60;;;2.25;;
43905;SDS011;29564;46.622;13.818;2022-10-19T17:43:35;6.72;;;2.92;;
43905;SDS011;29564;46.622;13.818;2022-10-19T17:44:38;7.68;;;3.28;;
43905;SDS011;29564;46.622;13.818;2022-10-19T17:45:41;8.00;;;3.35;;
43905;SDS011;29564;46.622;13.818;2022-10-19T17:46:56;7.15;;;3.47;;
43905;SDS011;29564;46.622;13.818;2022-10-19T17:47:59;7.68;;;3.55;;
43905;SDS011;29564;46.622;13.818;2022-10-19T17:49:26;6.22;;;3.03;;
43905;SDS011;29564;46.622;13.818;2022-10-19T17:50:43;7.10;;;3.42;;
43905;SDS011;29564;46.622;13.818;2022-10-19T17:51:55;6.03;;;3.63;;
43905;SDS011;29564;46.622;13.818;2022-10-19T17:53:06;24.45;;;8.20;;
43905;SDS011;29564;46.622;13.818;2022-10-19T17:54:09;32.75;;;10.75;;
43905;SDS011;29564;46.622;13.818;2022-10-19T18:19:06;17.17;;;6.88;;
43905;SDS011;29564;46.622;13.818;2022-10-19T18:20:14;10.52;;;5.88;;
43905;SDS011;29564;46.622;13.818;2022-10-19T18:21:20;12.43;;;5.40;;
43905;SDS011;29564;46.622;13.818;2022-10-19T18:22:33;14.25;;;4.35;;
43905;SDS011;29564;46.622;13.818;2022-10-19T18:23:43;12.65;;;4.78;;
43905;SDS011;29564;46.622;13.818;2022-10-19T18:24:54;10.07;;;5.97;;
43905;SDS011;29564;46.622;13.818;2022-10-19T18:26:17;9.07;;;3.85;;
43905;SDS011;29564;46.622;13.818;2022-10-19T18:27:43;11.25;;;4.28;;
43905;SDS011;29564;46.622;13.818;2022-10-19T18:28:54;10.05;;;4.10;;
43905;SDS011;29564;46.622;13.818;2022-10-19T18:29:56;11.55;;;5.07;;
43905;SDS011;29564;46.622;13.818;2022-10-19T18:31:17;30.23;;;10.55;;
43905;SDS011;29564;46.622;13.818;2022-10-19T18:32:32;20.80;;;8.45;;
43905;SDS011;29564;46.622;13.818;2022-10-19T18:33:45;11.50;;;4.80;;
43905;SDS011;29564;46.622;13.818;2022-10-19T18:34:52;9.63;;;4.20;;
43905;SDS011;29564;46.622;13.818;2022-10-19T18:36:03;9.98;;;4.45;;
43905;SDS011;29564;46.622;13.818;2022-10-19T18:37:11;13.18;;;5.20;;
43905;SDS011;29564;46.622;13.818;2022-10-19T18:38:20;11.60;;;4.57;;
43905;SDS011;29564;46.622;13.818;2022-10-19T18:39:37;11.38;;;4.70;;
43905;SDS011;29564;46.622;13.818;2022-10-19T18:41:07;14.60;;;5.80;;
43905;SDS011;29564;46.622;13.818;2022-10-19T18:42:19;12.38;;;5.25;;
43905;SDS011;29564;46.622;13.818;2022-10-19T18:44:55;12.50;;;4.20;;
43905;SDS011;29564;46.622;13.818;2022-10-19T18:46:06;10.18;;;3.85;;
43905;SDS011;29564;46.622;13.818;2022-10-19T18:47:24;9.40;;;3.85;;
43905;SDS011;29564;46.622;13.818;2022-10-19T18:48:29;12.13;;;4.57;;
43905;SDS011;29564;46.622;13.818;2022-10-19T18:51:01;8.13;;;3.10;;
43905;SDS011;29564;46.622;13.818;2022-10-19T18:52:08;7.28;;;3.13;;
43905;SDS011;29564;46.622;13.818;2022-10-19T18:53:17;7.57;;;3.78;;
43905;SDS011;29564;46.622;13.818;2022-10-19T18:54:27;11.05;;;3.53;;
43905;SDS011;29564;46.622;13.818;2022-10-19T18:55:55;9.43;;;3.85;;
43905;SDS011;29564;46.622;13.818;2022-10-19T18:57:18;12.38;;;4.40;;
43905;SDS011;29564;46.622;13.818;2022-10-19T18:58:31;10.80;;;4.82;;
43905;SDS011;29564;46.622;13.818;2022-10-19T18:59:46;9.82;;;4.13;;
43905;SDS011;29564;46.622;13.818;2022-10-19T19:01:03;9.65;;;3.83;;
43905;SDS011;29564;46.622;13.818;2022-10-19T19:02:15;9.02;;;4.32;;
43905;SDS011;29564;46.622;13.818;2022-10-19T19:03:17;12.60;;;5.25;;
43905;SDS011;29564;46.622;13.818;2022-10-19T19:09:14;11.50;;;4.97;;
43905;SDS011;29564;46.622;13.818;2022-10-19T19:10:35;9.05;;;3.80;;
43905;SDS011;29564;46.622;13.818;2022-10-19T19:11:40;9.75;;;4.20;;
43905;SDS011;29564;46.622;13.818;2022-10-19T19:12:49;7.90;;;4.40;;
43905;SDS011;29564;46.622;13.818;2022-10-19T19:14:00;15.05;;;4.95;;
43905;SDS011;29564;46.622;13.818;2022-10-19T19:15:11;11.07;;;4.60;;
43905;SDS011;29564;46.622;13.818;2022-10-19T19:16:46;12.60;;;4.72;;
43905;SDS011;29564;46.622;13.818;2022-10-19T19:18:08;9.48;;;4.43;;
43905;SDS011;29564;46.622;13.818;2022-10-19T19:19:35;10.50;;;4.45;;
43905;SDS011;29564;46.622;13.818;2022-10-19T19:20:47;9.02;;;4.00;;
43905;SDS011;29564;46.622;13.818;2022-10-19T19:21:52;9.25;;;3.92;;
43905;SDS011;29564;46.622;13.818;2022-10-19T19:23:04;9.80;;;4.13;;
43905;SDS011;29564;46.622;13.818;2022-10-19T19:24:09;10.57;;;4.10;;
43905;SDS011;29564;46.622;13.818;2022-10-19T19:26:58;13.30;;;5.15;;
43905;SDS011;29564;46.622;13.818;2022-10-19T19:28:16;10.25;;;5.00;;
43905;SDS011;29564;46.622;13.818;2022-10-19T19:29:26;12.43;;;5.05;;
43905;SDS011;29564;46.622;13.818;2022-10-19T19:30:31;11.05;;;4.72;;
43905;SDS011;29564;46.622;13.818;2022-10-19T19:31:36;13.52;;;4.10;;
43905;SDS011;29564;46.622;13.818;2022-10-19T19:32:43;8.65;;;3.85;;
43905;SDS011;29564;46.622;13.818;2022-10-19T19:35:53;11.80;;;4.65;;
43905;SDS011;29564;46.622;13.818;2022-10-19T19:36:54;6.53;;;3.25;;
43905;SDS011;29564;46.622;13.818;2022-10-19T19:37:59;12.63;;;5.72;;
43905;SDS011;29564;46.622;13.818;2022-10-19T19:40:16;11.23;;;5.20;;
43905;SDS011;29564;46.622;13.818;2022-10-19T19:41:27;11.57;;;5.97;;
43905;SDS011;29564;46.622;13.818;2022-10-19T19:42:39;10.88;;;4.10;;
43905;SDS011;29564;46.622;13.818;2022-10-19T19:43:46;7.43;;;4.15;;
43905;SDS011;29564;46.622;13.818;2022-10-19T19:44:57;10.73;;;4.38;;
43905;SDS011;29564;46.622;13.818;2022-10-19T19:45:59;12.60;;;4.82;;
43905;SDS011;29564;46.622;13.818;2022-10-19T19:47:08;12.60;;;4.57;;
43905;SDS011;29564;46.622;13.818;2022-10-19T19:48:10;12.05;;;4.72;;
43905;SDS011;29564;46.622;13.818;2022-10-19T19:49:15;8.05;;;4.40;;
43905;SDS011;29564;46.622;13.818;2022-10-19T19:50:23;9.50;;;5.35;;
43905;SDS011;29564;46.622;13.818;2022-10-19T19:51:38;13.05;;;4.68;;
43905;SDS011;29564;46.622;13.818;2022-10-19T19:52:45;8.93;;;3.72;;
43905;SDS011;29564;46.622;13.818;2022-10-19T19:53:50;8.45;;;4.00;;
43905;SDS011;29564;46.622;13.818;2022-10-19T19:55:00;12.02;;;5.00;;
43905;SDS011;29564;46.622;13.818;2022-10-19T19:56:13;8.55;;;3.65;;
43905;SDS011;29564;46.622;13.818;2022-10-19T19:57:19;12.73;;;6.15;;
43905;SDS011;29564;46.622;13.818;2022-10-19T19:58:29;9.65;;;5.07;;
43905;SDS011;29564;46.622;13.818;2022-10-19T19:59:43;12.48;;;5.57;;
43905;SDS011;29564;46.622;13.818;2022-10-19T20:00:51;11.48;;;4.97;;
43905;SDS011;29564;46.622;13.818;2022-10-19T20:01:58;11.95;;;6.30;;
43905;SDS011;29564;46.622;13.818;2022-10-19T20:03:10;15.93;;;4.97;;
43905;SDS011;29564;46.622;13.818;2022-10-19T20:04:16;10.00;;;4.93;;
43905;SDS011;29564;46.622;13.818;2022-10-19T20:05:19;12.27;;;5.65;;
43905;SDS011;29564;46.622;13.818;2022-10-19T20:06:21;11.15;;;4.68;;
43905;SDS011;29564;46.622;13.818;2022-10-19T20:07:26;12.05;;;5.20;;
43905;SDS011;29564;46.622;13.818;2022-10-19T20:08:33;9.15;;;4.55;;
43905;SDS011;29564;46.622;13.818;2022-10-19T20:09:39;9.57;;;4.53;;
43905;SDS011;29564;46.622;13.818;2022-10-19T20:10:44;8.60;;;3.92;;
43905;SDS011;29564;46.622;13.818;2022-10-19T20:11:52;8.63;;;4.70;;
43905;SDS011;29564;46.622;13.818;2022-10-19T20:13:00;13.60;;;4.50;;
43905;SDS011;29564;46.622;13.818;2022-10-19T20:14:10;12.60;;;5.35;;
43905;SDS011;29564;46.622;13.818;2022-10-19T20:15:19;10.27;;;4.40;;
43905;SDS011;29564;46.622;13.818;2022-10-19T20:16:27;9.02;;;4.60;;